createdAt,value
2023-03-30T00:00:48.460Z,97985.72
2023-03-30T00:08:32.637Z,97969.63
2023-03-30T00:11:52.044Z,97970.09
2023-03-30T00:14:51.267Z,97958.78
2023-03-30T00:17:47.167Z,97962.59
2023-03-30T00:20:50.312Z,97957.47
2023-03-30T00:23:48.878Z,97952.47
2023-03-30T00:26:40.552Z,97961.72
2023-03-30T00:29:40.904Z,97947.94
2023-03-30T00:32:38.592Z,97951.75
2023-03-30T00:35:45.983Z,97941.59
2023-03-30T00:38:40.947Z,97947.38
2023-03-30T00:41:43.155Z,97949.38
2023-03-30T00:45:29.762Z,97947.03
2023-03-30T00:48:25.249Z,97941.88
2023-03-30T00:51:17.873Z,97953.59
2023-03-30T00:54:26.349Z,97953.44
2023-03-30T01:01:25.949Z,97939.47
2023-03-30T01:04:17.436Z,97933.66
2023-03-30T01:07:13.518Z,97927.97
2023-03-30T01:10:04.785Z,97909.41
2023-03-30T01:12:57.177Z,97920.34
2023-03-30T01:16:03.161Z,97906.09
2023-03-30T01:19:16.564Z,97913.06
2023-03-30T01:22:54.415Z,97901.09
2023-03-30T01:26:36.615Z,97901.41
2023-03-30T01:30:07.150Z,97888.50
2023-03-30T01:33:59.089Z,97884.78
2023-03-30T01:37:53.493Z,97888.41
2023-03-30T01:40:58.154Z,97877.81
2023-03-30T01:44:05.497Z,97884.47
2023-03-30T01:47:07.143Z,97878.53
2023-03-30T01:50:05.087Z,97873.88
2023-03-30T01:53:02.514Z,97848.81
2023-03-30T01:56:07.151Z,97855.59
2023-03-30T01:59:04.105Z,97838.03
2023-03-30T02:02:03.627Z,97853.69
2023-03-30T02:04:57.908Z,97842.66
2023-03-30T02:07:55.492Z,97848.41
2023-03-30T02:10:50.090Z,97851.38
2023-03-30T02:13:43.769Z,97849.72
2023-03-30T02:16:42.113Z,97843.56
2023-03-30T02:19:32.213Z,97848.56
2023-03-30T02:22:24.036Z,97850.16
2023-03-30T02:25:16.326Z,97856.44
2023-03-30T02:28:05.981Z,97850.78
2023-03-30T02:30:59.781Z,97848.06
2023-03-30T02:34:15.752Z,97850.34
2023-03-30T02:37:37.753Z,97843.00
2023-03-30T02:40:44.259Z,97844.31
2023-03-30T02:43:47.082Z,97834.94
2023-03-30T02:47:07.234Z,97837.91
2023-03-30T02:50:06.336Z,97831.56
2023-03-30T02:53:07.974Z,97840.50
2023-03-30T02:56:13.862Z,97839.13
2023-03-30T02:59:11.095Z,97843.88
2023-03-30T03:02:13.988Z,97863.31
2023-03-30T03:05:13.321Z,97871.66
2023-03-30T03:08:15.621Z,97871.66
2023-03-30T03:11:14.686Z,97874.41
2023-03-30T03:14:13.230Z,97868.84
2023-03-30T03:17:22.565Z,97864.88
2023-03-30T03:20:16.089Z,97870.91
2023-03-30T03:23:13.441Z,97861.69
2023-03-30T03:26:12.278Z,97867.19
2023-03-30T03:29:04.277Z,97862.81
2023-03-30T03:31:54.256Z,97860.78
2023-03-30T03:34:48.339Z,97856.44
2023-03-30T03:37:39.208Z,97853.19
2023-03-30T03:40:30.297Z,97862.69
2023-03-30T03:43:27.566Z,97854.13
2023-03-30T03:46:17.768Z,97854.78
2023-03-30T03:49:09.887Z,97852.75
2023-03-30T03:52:05.016Z,97855.16
2023-03-30T03:54:55.192Z,97850.81
2023-03-30T03:57:49.905Z,97849.25
2023-03-30T04:00:41.521Z,97850.88
2023-03-30T04:03:36.793Z,97843.94
2023-03-30T04:06:31.150Z,97849.22
2023-03-30T04:09:35.884Z,97844.25
2023-03-30T04:12:27.910Z,97855.09
2023-03-30T04:15:22.394Z,97849.06
2023-03-30T04:18:18.260Z,97846.50
2023-03-30T04:21:14.324Z,97842.25
2023-03-30T04:24:13.115Z,97840.28
2023-03-30T04:27:06.284Z,97837.31
2023-03-30T04:29:59.915Z,97832.34
2023-03-30T04:33:04.088Z,97845.28
2023-03-30T04:35:55.409Z,97836.97
2023-03-30T04:38:45.917Z,97834.31
2023-03-30T04:41:36.241Z,97842.28
2023-03-30T04:44:27.035Z,97847.94
2023-03-30T04:47:18.107Z,97839.13
2023-03-30T04:50:20.738Z,97842.78
2023-03-30T04:53:15.811Z,97860.75
2023-03-30T04:56:21.082Z,97874.53
2023-03-30T04:59:19.253Z,97866.72
2023-03-30T05:02:12.418Z,97863.56
2023-03-30T05:05:04.797Z,97866.06
2023-03-30T05:08:13.045Z,97858.59
2023-03-30T05:11:11.884Z,97861.91
2023-03-30T05:14:04.608Z,97862.88
2023-03-30T05:16:59.263Z,97863.38
2023-03-30T05:19:50.460Z,97851.56
2023-03-30T05:22:40.630Z,97863.53
2023-03-30T05:25:38.553Z,97871.84
2023-03-30T05:28:32.783Z,97873.00
2023-03-30T05:31:30.324Z,97881.97
2023-03-30T05:34:24.194Z,97876.00
2023-03-30T05:37:23.889Z,97871.03
2023-03-30T05:40:14.195Z,97862.53
2023-03-30T05:43:04.682Z,97859.22
2023-03-30T05:45:53.911Z,97858.59
2023-03-30T05:48:51.560Z,97858.59
2023-03-30T05:51:49.302Z,97856.09
2023-03-30T05:54:50.502Z,97852.59
2023-03-30T05:57:44.906Z,97848.94
2023-03-30T06:00:37.163Z,97841.63
2023-03-30T06:03:31.612Z,97824.38
2023-03-30T06:06:21.949Z,97818.72
2023-03-30T06:09:13.478Z,97810.75
2023-03-30T06:12:35.223Z,97792.44
2023-03-30T06:15:27.736Z,97785.47
2023-03-30T06:18:16.102Z,97776.50
2023-03-30T06:21:09.294Z,97773.34
2023-03-30T06:24:00.891Z,97781.63
2023-03-30T06:26:52.606Z,97794.41
2023-03-30T06:29:48.806Z,97800.66
2023-03-30T06:32:46.581Z,97801.47
2023-03-30T06:35:50.665Z,97791.31
2023-03-30T06:38:46.299Z,97784.28
2023-03-30T06:45:17.097Z,97781.28
2023-03-30T06:48:13.525Z,97780.59
2023-03-30T06:51:14.402Z,97778.59
2023-03-30T06:54:22.212Z,97768.25
2023-03-30T06:57:20.644Z,97780.75
2023-03-30T07:00:40.251Z,97790.19
2023-03-30T07:03:36.711Z,97803.34
2023-03-30T07:06:37.675Z,97804.19
2023-03-30T07:09:34.318Z,97804.19
2023-03-30T07:12:24.870Z,97805.47
2023-03-30T07:15:27.112Z,97807.78
2023-03-30T07:18:20.148Z,97813.59
2023-03-30T07:21:11.565Z,97805.41
2023-03-30T07:24:31.338Z,97824.91
2023-03-30T07:27:29.263Z,97858.72
2023-03-30T07:30:22.230Z,97901.28
2023-03-30T07:33:14.394Z,97927.63
2023-03-30T07:36:13.163Z,97934.44
2023-03-30T07:39:09.291Z,97934.75
2023-03-30T07:41:59.066Z,97934.41
2023-03-30T07:44:46.573Z,97925.09
2023-03-30T07:47:35.773Z,97928.25
2023-03-30T07:50:25.955Z,97936.91
2023-03-30T07:53:16.899Z,97947.38
2023-03-30T07:56:07.682Z,97938.25
2023-03-30T07:58:57.149Z,97946.06
2023-03-30T08:01:50.416Z,97941.72
2023-03-30T08:04:38.162Z,97947.72
2023-03-30T08:07:27.593Z,97931.91
2023-03-30T08:10:16.755Z,97927.91
2023-03-30T08:13:04.584Z,97921.94
2023-03-30T08:15:54.302Z,97905.66
2023-03-30T08:18:42.420Z,97912.97
2023-03-30T08:21:30.256Z,97916.63
2023-03-30T08:24:18.065Z,97935.91
2023-03-30T08:27:07.118Z,97957.88
2023-03-30T08:29:55.145Z,97980.47
2023-03-30T08:32:42.625Z,97977.34
2023-03-30T08:35:30.636Z,97937.06
2023-03-30T08:38:18.981Z,97947.50
2023-03-30T08:41:44.494Z,97961.31
2023-03-30T08:44:39.902Z,97970.81
2023-03-30T08:47:39.576Z,97961.19
2023-03-30T08:50:34.907Z,97963.97
2023-03-30T08:53:22.889Z,97970.13
2023-03-30T08:56:20.748Z,97960.19
2023-03-30T08:59:27.017Z,97961.97
2023-03-30T09:02:22.170Z,97959.34
2023-03-30T09:05:22.615Z,97959.31
2023-03-30T09:08:20.147Z,97945.00
2023-03-30T09:11:16.127Z,97943.47
2023-03-30T09:14:11.135Z,97940.81
2023-03-30T09:17:08.628Z,97937.63
2023-03-30T09:20:03.383Z,97929.63
2023-03-30T09:22:53.697Z,97931.91
2023-03-30T09:25:47.694Z,97944.88
2023-03-30T09:28:43.167Z,97952.69
2023-03-30T09:31:39.951Z,97957.38
2023-03-30T09:34:35.873Z,97958.19
2023-03-30T09:37:27.235Z,97973.38
2023-03-30T09:40:38.794Z,97974.66
2023-03-30T09:43:35.250Z,97985.63
2023-03-30T09:46:22.564Z,97987.81
2023-03-30T09:49:16.644Z,97979.94
2023-03-30T09:52:08.359Z,97945.97
2023-03-30T09:54:57.799Z,97921.66
2023-03-30T09:57:45.209Z,97931.63
2023-03-30T10:00:35.478Z,97920.28
2023-03-30T10:03:24.859Z,97918.91
2023-03-30T10:06:18.157Z,97921.56
2023-03-30T10:09:13.095Z,97917.41
2023-03-30T10:12:02.507Z,97910.53
2023-03-30T10:14:56.815Z,97908.78
2023-03-30T10:17:48.788Z,97909.41
2023-03-30T10:20:39.660Z,97897.38
2023-03-30T10:23:33.502Z,97904.03
2023-03-30T10:26:24.143Z,97891.47
2023-03-30T10:29:18.710Z,97892.13
2023-03-30T10:32:17.042Z,97894.47
2023-03-30T10:35:11.495Z,97891.91
2023-03-30T10:38:01.682Z,97898.66
2023-03-30T10:40:55.721Z,97901.16
2023-03-30T10:43:44.945Z,97896.47
2023-03-30T10:46:34.312Z,97889.94
2023-03-30T10:49:49.535Z,97883.84
2023-03-30T10:52:59.466Z,97884.78
2023-03-30T10:56:00.119Z,97876.84
2023-03-30T10:59:16.323Z,97880.25
2023-03-30T11:02:26.178Z,97886.56
2023-03-30T11:05:18.297Z,97888.47
2023-03-30T11:08:08.165Z,97884.31
2023-03-30T11:10:59.251Z,97874.00
2023-03-30T11:13:52.173Z,97883.53
2023-03-30T11:16:49.272Z,97863.25
2023-03-30T11:19:46.173Z,97856.97
2023-03-30T11:22:41.239Z,97846.91
2023-03-30T11:25:31.891Z,97846.31
2023-03-30T11:28:26.920Z,97839.63
2023-03-30T11:31:26.775Z,97839.19
2023-03-30T11:34:25.846Z,97838.81
2023-03-30T11:37:27.163Z,97843.75
2023-03-30T11:40:19.439Z,97838.41
2023-03-30T11:43:09.694Z,97847.31
2023-03-30T11:46:05.140Z,97836.69
2023-03-30T11:49:22.326Z,97831.13
2023-03-30T11:52:22.585Z,97834.03
2023-03-30T11:55:24.745Z,97834.88
2023-03-30T11:58:22.217Z,97823.75
2023-03-30T12:01:28.299Z,97830.53
2023-03-30T12:04:21.923Z,97808.19
2023-03-30T12:07:20.408Z,97825.75
2023-03-30T12:10:17.046Z,97834.78
2023-03-30T12:13:05.036Z,97843.34
2023-03-30T12:15:59.696Z,97836.91
2023-03-30T12:19:08.730Z,97817.97
2023-03-30T12:22:01.847Z,97814.31
2023-03-30T12:24:52.937Z,97809.44
2023-03-30T12:27:59.724Z,97803.25
2023-03-30T12:30:56.481Z,97800.78
2023-03-30T12:33:49.472Z,97794.56
2023-03-30T12:36:39.947Z,97790.59
2023-03-30T12:39:31.240Z,97771.78
2023-03-30T12:42:34.240Z,97774.03
2023-03-30T12:45:31.996Z,97768.34
2023-03-30T12:48:29.964Z,97759.25
2023-03-30T12:51:31.925Z,97756.50
2023-03-30T12:54:56.947Z,97759.47
2023-03-30T12:58:08.832Z,97753.91
2023-03-30T13:01:13.011Z,97758.66
2023-03-30T13:04:02.295Z,97748.03
2023-03-30T13:06:53.822Z,97754.75
2023-03-30T13:09:56.947Z,97771.34
2023-03-30T13:12:49.313Z,97747.47
2023-03-30T13:15:43.387Z,97759.63
2023-03-30T13:18:42.435Z,97753.16
2023-03-30T13:21:49.490Z,97739.47
2023-03-30T13:24:44.418Z,97729.00
2023-03-30T13:27:35.933Z,97731.13
2023-03-30T13:30:28.660Z,97719.09
2023-03-30T13:33:21.590Z,97707.38
2023-03-30T13:36:16.123Z,97689.94
2023-03-30T13:39:09.492Z,97698.28
2023-03-30T13:42:09.027Z,97685.03
2023-03-30T13:45:03.751Z,97685.03
2023-03-30T13:48:05.941Z,97684.38
2023-03-30T13:50:58.755Z,97676.19
2023-03-30T13:53:52.825Z,97685.25
2023-03-30T13:56:44.976Z,97673.41
2023-03-30T13:59:36.507Z,97680.31
2023-03-30T14:02:28.086Z,97667.53
2023-03-30T14:05:21.858Z,97664.69
2023-03-30T14:08:12.825Z,97663.97
2023-03-30T14:11:04.908Z,97653.91
2023-03-30T14:13:54.378Z,97651.13
2023-03-30T14:16:42.464Z,97652.72
2023-03-30T14:19:34.302Z,97636.31
2023-03-30T14:22:27.263Z,97636.06
2023-03-30T14:25:27.554Z,97647.91
2023-03-30T14:28:18.517Z,97638.72
2023-03-30T14:31:14.130Z,97634.19
2023-03-30T14:34:02.014Z,97639.94
2023-03-30T14:36:49.932Z,97622.75
2023-03-30T14:39:42.449Z,97607.84
2023-03-30T14:42:34.723Z,97614.06
2023-03-30T14:45:24.034Z,97619.69
2023-03-30T14:48:22.050Z,97631.38
2023-03-30T14:51:25.579Z,97619.59
2023-03-30T14:54:17.809Z,97620.16
2023-03-30T14:57:08.212Z,97623.25
2023-03-30T14:59:59.999Z,97620.19
2023-03-30T15:02:53.079Z,97606.44
2023-03-30T15:05:42.865Z,97614.78
2023-03-30T15:08:33.418Z,97620.47
2023-03-30T15:11:24.398Z,97617.94
2023-03-30T15:14:18.713Z,97615.53
2023-03-30T15:17:10.262Z,97625.41
2023-03-30T15:20:06.181Z,97625.78
2023-03-30T15:22:55.738Z,97630.47
2023-03-30T15:25:44.520Z,97633.41
2023-03-30T15:28:36.440Z,97633.69
2023-03-30T15:31:25.122Z,97645.41
2023-03-30T15:34:17.416Z,97649.00
2023-03-30T15:37:23.364Z,97647.59
2023-03-30T15:40:33.585Z,97642.81
2023-03-30T15:43:25.221Z,97639.25
2023-03-30T15:46:16.891Z,97645.47
2023-03-30T15:49:05.733Z,97649.97
2023-03-30T15:51:59.130Z,97652.06
2023-03-30T15:54:52.787Z,97644.66
2023-03-30T15:57:47.121Z,97648.47
2023-03-30T16:00:36.964Z,97649.91
2023-03-30T16:03:39.339Z,97650.22
2023-03-30T16:06:27.169Z,97640.78
2023-03-30T16:09:15.888Z,97641.44
2023-03-30T16:12:05.592Z,97647.34
2023-03-30T16:14:54.089Z,97645.47
2023-03-30T16:17:41.853Z,97655.06
2023-03-30T16:20:32.432Z,97652.50
2023-03-30T16:23:21.231Z,97644.88
2023-03-30T16:26:09.786Z,97623.16
2023-03-30T16:28:58.950Z,97632.72
2023-03-30T16:31:46.993Z,97635.63
2023-03-30T16:34:34.775Z,97648.13
2023-03-30T16:37:22.729Z,97635.44
2023-03-30T16:40:24.966Z,97627.28
2023-03-30T16:43:12.999Z,97646.09
2023-03-30T16:46:02.419Z,97655.63
2023-03-30T16:48:50.356Z,97660.28
2023-03-30T16:51:38.370Z,97667.38
2023-03-30T16:57:17.105Z,97659.53
2023-03-30T17:00:19.507Z,97667.41
2023-03-30T17:03:09.106Z,97667.44
2023-03-30T17:05:57.218Z,97687.03
2023-03-30T17:08:45.852Z,97735.94
2023-03-30T17:11:33.966Z,97801.47
2023-03-30T17:14:23.218Z,97787.19
2023-03-30T17:17:11.980Z,97771.84
2023-03-30T17:20:15.286Z,97781.25
2023-03-30T17:23:03.565Z,97773.75
2023-03-30T17:25:53.692Z,97779.88
2023-03-30T17:28:42.119Z,97782.09
2023-03-30T17:31:30.591Z,97790.28
2023-03-30T17:34:18.570Z,97804.66
2023-03-30T17:37:07.869Z,97800.88
2023-03-30T17:39:56.177Z,97795.22
2023-03-30T17:42:45.046Z,97800.28
2023-03-30T17:45:34.569Z,97791.97
2023-03-30T17:48:23.288Z,97794.47
2023-03-30T17:51:11.060Z,97799.72
2023-03-30T17:54:00.430Z,97802.22
2023-03-30T17:56:48.498Z,97812.16
2023-03-30T17:59:36.471Z,97817.97
2023-03-30T18:02:24.238Z,97815.16
2023-03-30T18:05:12.348Z,97816.03
2023-03-30T18:07:59.991Z,97815.00
2023-03-30T18:10:51.535Z,97824.69
2023-03-30T18:13:39.601Z,97824.50
2023-03-30T18:16:27.942Z,97815.66
2023-03-30T18:19:15.954Z,97820.50
2023-03-30T18:22:03.813Z,97815.50
2023-03-30T18:24:51.932Z,97823.28
2023-03-30T18:27:42.413Z,97816.06
2023-03-30T18:30:31.701Z,97828.16
2023-03-30T18:33:19.872Z,97823.53
2023-03-30T18:36:12.587Z,97833.50
2023-03-30T18:39:01.219Z,97841.91
2023-03-30T18:41:49.055Z,97841.31
2023-03-30T18:44:38.178Z,97839.03
2023-03-30T18:47:26.474Z,97845.56
2023-03-30T18:50:21.508Z,97854.75
2023-03-30T18:53:10.615Z,97856.22
2023-03-30T18:56:01.771Z,97853.44
2023-03-30T18:58:50.371Z,97856.97
2023-03-30T19:01:40.207Z,97862.47
2023-03-30T19:04:29.412Z,97864.13
2023-03-30T19:07:22.900Z,97860.38
2023-03-30T19:10:13.890Z,97867.84
2023-03-30T19:13:01.945Z,97860.22
2023-03-30T19:15:51.024Z,97862.22
2023-03-30T19:18:40.388Z,97863.91
2023-03-30T19:21:28.329Z,97869.88
2023-03-30T19:24:16.027Z,97869.84
2023-03-30T19:27:06.018Z,97868.69
2023-03-30T19:29:54.196Z,97867.19
2023-03-30T19:32:43.007Z,97877.97
2023-03-30T19:35:33.346Z,97879.59
2023-03-30T19:38:21.450Z,97886.22
2023-03-30T19:41:09.165Z,97889.56
2023-03-30T19:43:57.076Z,97887.38
2023-03-30T19:46:45.137Z,97888.38
2023-03-30T19:49:33.280Z,97890.88
2023-03-30T19:52:22.765Z,97889.03
2023-03-30T19:55:12.161Z,97882.06
2023-03-30T19:57:59.754Z,97878.41
2023-03-30T20:00:49.591Z,97890.19
2023-03-30T20:03:40.698Z,97892.34
2023-03-30T20:06:28.360Z,97897.47
2023-03-30T20:09:19.060Z,97885.72
2023-03-30T20:12:07.830Z,97885.72
2023-03-30T20:14:58.795Z,97878.88
2023-03-30T20:17:46.719Z,97879.38
2023-03-30T20:20:34.625Z,97872.56
2023-03-30T20:23:22.337Z,97876.38
2023-03-30T20:26:11.816Z,97871.41
2023-03-30T20:29:00.782Z,97884.00
2023-03-30T20:31:51.493Z,97892.75
2023-03-30T20:34:40.431Z,97889.63
2023-03-30T20:37:28.431Z,97881.50
2023-03-30T20:40:16.455Z,97889.63
2023-03-30T20:43:09.917Z,97880.00
2023-03-30T20:46:02.922Z,97895.56
2023-03-30T20:48:54.840Z,97886.63
2023-03-30T20:51:45.103Z,97891.59
2023-03-30T20:54:32.821Z,97888.44
2023-03-30T20:57:21.578Z,97887.22
2023-03-30T21:00:13.668Z,97893.53
2023-03-30T21:03:01.909Z,97893.38
2023-03-30T21:06:00.552Z,97906.09
2023-03-30T21:08:48.620Z,97915.38
2023-03-30T21:11:40.069Z,97941.28
2023-03-30T21:14:27.714Z,97918.44
2023-03-30T21:17:17.197Z,97906.19
2023-03-30T21:20:07.482Z,97883.63
2023-03-30T21:22:55.062Z,97884.00
2023-03-30T21:25:43.355Z,97889.63
2023-03-30T21:28:32.377Z,97891.31
2023-03-30T21:31:20.430Z,97892.44
2023-03-30T21:34:10.758Z,97889.63
2023-03-30T21:36:59.471Z,97884.31
2023-03-30T21:39:47.340Z,97878.69
2023-03-30T21:42:36.248Z,97886.28
2023-03-30T21:45:24.604Z,97887.06
2023-03-30T21:48:14.448Z,97886.59
2023-03-30T21:51:05.455Z,97883.44
2023-03-30T21:53:54.291Z,97891.56
2023-03-30T21:56:42.028Z,97899.81
2023-03-30T21:59:30.369Z,97904.94
2023-03-30T22:02:18.368Z,97924.53
2023-03-30T22:05:07.037Z,97919.06
2023-03-30T22:07:56.138Z,97915.63
2023-03-30T22:10:44.725Z,97898.53
2023-03-30T22:13:33.665Z,97884.09
2023-03-30T22:16:23.905Z,97863.88
2023-03-30T22:19:11.610Z,97851.78
2023-03-30T22:21:59.749Z,97839.84
2023-03-30T22:24:48.822Z,97845.63
2023-03-30T22:27:36.971Z,97849.44
2023-03-30T22:30:24.662Z,97845.13
2023-03-30T22:33:13.028Z,97830.53
2023-03-30T22:36:03.060Z,97830.19
2023-03-30T22:38:52.465Z,97820.53
2023-03-30T22:41:41.884Z,97809.09
2023-03-30T22:44:29.667Z,97805.63
2023-03-30T22:47:17.506Z,97792.34
2023-03-30T22:50:06.006Z,97789.19
2023-03-30T22:52:54.221Z,97794.00
2023-03-30T22:55:42.003Z,97799.94
2023-03-30T22:58:31.300Z,97796.59
2023-03-30T23:01:19.628Z,97797.91
2023-03-30T23:04:08.040Z,97785.97
2023-03-30T23:06:56.097Z,97787.94
2023-03-30T23:09:47.258Z,97777.97
2023-03-30T23:12:35.219Z,97773.31
2023-03-30T23:15:24.045Z,97769.66
2023-03-30T23:18:12.466Z,97769.31
2023-03-30T23:21:06.010Z,97754.03
2023-03-30T23:23:54.160Z,97747.69
2023-03-30T23:26:42.081Z,97743.84
2023-03-30T23:29:30.048Z,97738.38
2023-03-30T23:32:19.064Z,97736.38
2023-03-30T23:35:07.927Z,97739.94
2023-03-30T23:37:55.633Z,97733.63
2023-03-30T23:40:43.738Z,97727.97
2023-03-30T23:43:31.607Z,97723.28
2023-03-30T23:46:19.807Z,97715.97
2023-03-30T23:49:09.379Z,97720.22
2023-03-30T23:51:57.478Z,97726.13
2023-03-30T23:54:45.305Z,97725.59
2023-03-30T23:57:33.175Z,97760.94
